Time;durP1;ratioP1;P1;durP2;ratioP2;P2;SDS_P1;SDS_P2;PMS_P1;PMS_P2;Temp;Humidity;BMP_temperature;BMP_pressure;BME280_temperature;BME280_humidity;BME280_pressure;Samples;Min_cycle;Max_cycle;Signal;HPM_P1;HPM_P2
2022/03/29 00:01:19;;;;;;;61.55;26.13;;;;;;;10.89;94.96;100564.56;8255038;28;20800;-64
2022/03/29 00:05:19;;;;;;;58.45;27.33;;;;;;;10.67;95.08;100565.66;8286719;28;20104;-64
2022/03/29 00:09:20;;;;;;;60.72;26.08;;;;;;;10.70;95.03;100553.72;8290532;28;20041;-64
2022/03/29 00:13:21;;;;;;;65.57;25.90;;;;;;;10.79;94.96;100553.72;8271590;28;20495;-64
2022/03/29 00:17:21;;;;;;;62.33;26.10;;;;;;;10.68;94.32;100556.56;8289572;28;20563;-64
2022/03/29 00:21:22;;;;;;;70.47;27.30;;;;;;;10.67;94.78;100549.44;8271681;28;20402;-64
2022/03/29 00:25:22;;;;;;;65.57;27.00;;;;;;;10.66;95.37;100553.16;8258200;28;20272;-64
2022/03/29 00:29:23;;;;;;;70.07;26.85;;;;;;;10.33;96.85;100542.69;8258253;28;20038;-64
2022/03/29 00:33:23;;;;;;;71.32;27.80;;;;;;;10.48;96.11;100544.00;8255391;28;20466;-64
2022/03/29 00:37:23;;;;;;;72.22;27.23;;;;;;;10.40;96.33;100545.72;8257902;28;20050;-65
2022/03/29 00:41:24;;;;;;;68.50;26.48;;;;;;;10.34;96.07;100536.28;8262852;28;20065;-64
2022/03/29 00:45:24;;;;;;;69.40;26.48;;;;;;;10.30;97.09;100529.47;8288467;28;20034;-64
2022/03/29 00:49:25;;;;;;;67.68;25.20;;;;;;;10.40;96.42;100530.31;8267203;28;20059;-64
2022/03/29 00:53:25;;;;;;;66.13;26.60;;;;;;;10.40;96.34;100524.91;8242537;28;20038;-64
2022/03/29 00:57:28;;;;;;;73.82;26.88;;;;;;;10.56;95.06;100511.75;8256878;28;20038;-64
2022/03/29 01:01:29;;;;;;;62.35;24.63;;;;;;;10.73;93.92;100516.44;8274503;28;20060;-64
2022/03/29 01:05:30;;;;;;;61.67;25.42;;;;;;;10.76;92.99;100513.44;8287059;28;20037;-65
2022/03/29 01:09:32;;;;;;;60.50;26.05;;;;;;;10.52;94.47;100499.47;8288448;28;20042;-65
2022/03/29 01:13:33;;;;;;;63.83;24.90;;;;;;;10.45;95.34;100498.34;8287790;28;20038;-64
2022/03/29 01:17:43;;;;;;;63.63;25.42;;;;;;;10.59;94.60;100492.53;8287932;28;20042;-64
2022/03/29 01:21:54;;;;;;;60.95;24.33;;;;;;;10.50;95.26;100485.28;8266812;28;20038;-64
2022/03/29 01:25:55;;;;;;;56.55;24.38;;;;;;;10.44;95.06;100477.72;8263509;28;20041;-64
2022/03/29 01:29:58;;;;;;;62.90;25.17;;;;;;;10.59;93.50;100470.91;8288047;28;20117;-64
2022/03/29 01:33:59;;;;;;;66.35;24.75;;;;;;;10.57;94.65;100478.28;8287612;28;20417;-64
2022/03/29 01:38:00;;;;;;;62.58;24.23;;;;;;;10.70;94.57;100483.44;8287746;28;20050;-64
2022/03/29 01:42:00;;;;;;;50.42;23.23;;;;;;;10.43;95.79;100473.28;8287998;28;20117;-64
2022/03/29 01:46:01;;;;;;;55.80;22.55;;;;;;;10.57;95.31;100467.47;8287572;28;20038;-64
2022/03/29 01:50:02;;;;;;;61.50;23.55;;;;;;;10.52;96.14;100464.34;8286364;28;20648;-64
2022/03/29 01:54:03;;;;;;;61.10;24.35;;;;;;;10.30;97.65;100453.81;8256333;28;20414;-64
2022/03/29 01:58:03;;;;;;;64.80;23.80;;;;;;;10.44;97.67;100453.41;8238967;28;20042;-64
2022/03/29 02:02:05;;;;;;;63.13;24.90;;;;;;;10.38;98.65;100445.00;8276858;28;20042;-64
2022/03/29 02:06:05;;;;;;;60.92;23.40;;;;;;;10.46;97.25;100437.88;8264344;28;20042;-64
2022/03/29 02:10:06;;;;;;;62.72;25.02;;;;;;;10.33;97.75;100440.00;8256667;28;20041;-64
2022/03/29 02:14:07;;;;;;;54.45;25.23;;;;;;;10.21;99.40;100446.53;8258787;28;20054;-64
2022/03/29 02:18:08;;;;;;;65.28;25.65;;;;;;;10.25;97.79;100428.22;8255788;28;20050;-65
2022/03/29 02:22:09;;;;;;;63.70;24.52;;;;;;;10.31;99.00;100428.47;8258728;28;20524;-64
2022/03/29 02:26:11;;;;;;;59.83;24.33;;;;;;;10.31;97.97;100428.47;8261468;28;20043;-64
2022/03/29 02:30:13;;;;;;;58.47;24.08;;;;;;;10.28;98.25;100420.66;8293227;28;20277;-64
2022/03/29 02:34:14;;;;;;;58.38;25.33;;;;;;;10.40;97.78;100424.94;8292609;28;20414;-64
2022/03/29 02:38:17;;;;;;;59.25;23.85;;;;;;;10.35;97.08;100419.13;8292732;28;20124;-64
2022/03/29 02:42:18;;;;;;;66.27;23.73;;;;;;;10.37;97.27;100419.81;8288383;28;20073;-64
2022/03/29 02:46:19;;;;;;;63.17;24.92;;;;;;;10.20;98.64;100412.41;8265284;28;20049;-65
2022/03/29 02:50:20;;;;;;;70.43;25.08;;;;;;;10.15;98.87;100406.56;8253244;28;20049;-64
2022/03/29 02:54:21;;;;;;;55.05;23.27;;;;;;;10.15;99.61;100403.88;8266578;28;20125;-65
2022/03/29 02:58:22;;;;;;;58.83;24.63;;;;;;;10.24;98.40;100394.91;8262798;28;20050;-65
2022/03/29 03:02:22;;;;;;;62.30;24.42;;;;;;;10.09;99.63;100388.22;8272043;28;20300;-64
2022/03/29 03:06:24;;;;;;;64.00;24.13;;;;;;;9.98;99.35;100382.94;8261923;28;20089;-64
2022/03/29 03:10:25;;;;;;;69.70;24.80;;;;;;;10.10;98.99;100384.56;8260789;28;20050;-65
2022/03/29 03:14:26;;;;;;;57.55;23.15;;;;;;;10.05;100.00;100384.06;8288043;28;20031;-64
2022/03/29 03:18:26;;;;;;;58.53;23.90;;;;;;;9.92;100.00;100372.69;8289989;28;20181;-64
2022/03/29 03:22:27;;;;;;;55.17;23.27;;;;;;;9.90;100.00;100377.38;8263509;28;20110;-64
2022/03/29 03:26:28;;;;;;;60.47;25.08;;;;;;;10.07;100.00;100371.31;8260851;28;20388;-64
2022/03/29 03:30:28;;;;;;;60.25;24.88;;;;;;;10.19;99.11;100359.41;8259851;28;20113;-64
2022/03/29 03:34:29;;;;;;;64.93;24.83;;;;;;;10.21;98.71;100373.59;8259076;28;20042;-64
2022/03/29 03:38:29;;;;;;;61.70;24.38;;;;;;;10.00;99.75;100360.19;8259529;28;20495;-65
2022/03/29 03:42:30;;;;;;;68.88;25.85;;;;;;;10.14;98.87;100361.66;8272040;28;20458;-65
2022/03/29 03:46:30;;;;;;;59.10;22.48;;;;;;;10.09;99.21;100345.00;8290453;28;20458;-65
2022/03/29 03:50:32;;;;;;;57.07;24.03;;;;;;;9.84;100.00;100348.22;8287191;28;20062;-65
2022/03/29 03:54:34;;;;;;;65.45;22.98;;;;;;;9.78;100.00;100343.38;8278939;28;20800;-65
2022/03/29 03:58:34;;;;;;;59.88;25.52;;;;;;;9.61;100.00;100331.41;8257535;28;20042;-65
2022/03/29 04:02:35;;;;;;;64.60;25.85;;;;;;;9.58;100.00;100322.78;8252958;28;20088;-65
2022/03/29 04:06:35;;;;;;;61.22;24.85;;;;;;;9.46;100.00;100318.47;8272374;28;20030;-65
2022/03/29 04:10:37;;;;;;;70.38;25.45;;;;;;;9.20;100.00;100319.94;8290183;28;20042;-65
2022/03/29 04:14:37;;;;;;;63.03;23.23;;;;;;;9.36;100.00;100314.88;8290059;28;20536;-65
2022/03/29 04:18:38;;;;;;;67.00;25.35;;;;;;;9.38;100.00;100312.91;8288026;28;20189;-65
2022/03/29 04:22:39;;;;;;;72.63;24.50;;;;;;;9.48;100.00;100311.94;8242307;28;20026;-65
2022/03/29 04:26:39;;;;;;;64.47;23.63;;;;;;;9.61;100.00;100314.41;8258595;28;20034;-65
2022/03/29 04:30:40;;;;;;;71.43;25.02;;;;;;;9.40;100.00;100300.16;8267913;28;20517;-65
2022/03/29 04:34:40;;;;;;;62.78;24.95;;;;;;;9.73;100.00;100299.78;8246196;28;20509;-65
2022/03/29 04:38:40;;;;;;;62.00;24.00;;;;;;;9.77;100.00;100293.97;8263562;28;20507;-65
2022/03/29 04:42:43;;;;;;;66.15;23.95;;;;;;;9.80;100.00;100288.25;8262349;28;20053;-65
2022/03/29 04:46:44;;;;;;;70.53;24.33;;;;;;;9.74;100.00;100283.44;8248214;28;20625;-65
2022/03/29 04:50:44;;;;;;;63.63;25.55;;;;;;;9.59;100.00;100284.84;8265434;28;20034;-65
2022/03/29 04:54:44;;;;;;;57.05;22.00;;;;;;;9.52;100.00;100277.44;8256361;28;20344;-65
2022/03/29 04:58:45;;;;;;;61.57;22.20;;;;;;;9.35;100.00;100270.88;8256736;28;20038;-65
2022/03/29 05:02:46;;;;;;;57.45;23.77;;;;;;;9.44;100.00;100274.59;8275036;28;20288;-65
2022/03/29 05:06:46;;;;;;;60.35;23.85;;;;;;;9.51;100.00;100273.88;8258791;28;20076;-65
2022/03/29 05:10:47;;;;;;;63.25;25.38;;;;;;;9.43;100.00;100267.50;8260175;28;20047;-65
2022/03/29 05:14:47;;;;;;;68.00;25.60;;;;;;;9.20;100.00;100260.63;8288402;28;20045;-65
2022/03/29 05:18:49;;;;;;;66.47;24.92;;;;;;;9.33;100.00;100266.63;8288227;28;20125;-65
2022/03/29 05:22:51;;;;;;;71.90;23.98;;;;;;;9.56;100.00;100262.69;8259548;28;20240;-65
2022/03/29 05:26:52;;;;;;;63.95;23.08;;;;;;;9.64;100.00;100260.13;8267103;28;20054;-65
2022/03/29 05:30:52;;;;;;;61.37;23.30;;;;;;;9.76;100.00;100259.84;8272713;28;20046;-65
2022/03/29 05:34:52;;;;;;;76.17;23.90;;;;;;;10.08;99.55;100265.00;8270214;28;20292;-65
2022/03/29 05:38:53;;;;;;;54.20;22.60;;;;;;;9.83;99.21;100265.53;8258408;28;20293;-65
2022/03/29 05:42:54;;;;;;;63.08;23.17;;;;;;;9.74;100.00;100261.00;8253088;28;20078;-65
2022/03/29 05:51:14;;;;;;;60.35;23.33;;;;;;;9.35;100.00;100272.72;8264331;28;20046;-65
2022/03/29 05:55:16;;;;;;;49.78;22.50;;;;;;;9.39;100.00;100268.75;8279590;28;20092;-65
2022/03/29 05:59:16;;;;;;;56.95;24.15;;;;;;;9.48;100.00;100262.50;8280922;28;20866;-65
2022/03/29 06:03:17;;;;;;;57.80;22.52;;;;;;;9.24;100.00;100256.66;8284846;28;20388;-65
2022/03/29 06:07:19;;;;;;;66.70;25.20;;;;;;;9.45;100.00;100270.88;8268868;28;20048;-65
2022/03/29 06:11:21;;;;;;;59.95;23.63;;;;;;;9.57;100.00;100281.44;8266527;28;20057;-65
2022/03/29 06:15:21;;;;;;;54.38;23.17;;;;;;;9.36;100.00;100282.50;8287198;28;20089;-65
2022/03/29 06:19:22;;;;;;;67.90;23.83;;;;;;;9.69;100.00;100274.03;8270561;28;20047;-65
2022/03/29 06:23:23;;;;;;;59.00;24.48;;;;;;;9.73;100.00;100281.72;8272255;28;20048;-65
2022/03/29 06:27:23;;;;;;;50.45;23.08;;;;;;;9.81;100.00;100283.72;8270937;28;20034;-65
2022/03/29 06:31:24;;;;;;;62.78;23.92;;;;;;;9.99;100.00;100282.00;8261876;28;20046;-65
2022/03/29 06:35:27;;;;;;;57.33;23.58;;;;;;;9.89;100.00;100275.78;8256753;28;20422;-65
2022/03/29 06:39:28;;;;;;;61.92;24.33;;;;;;;9.82;100.00;100270.06;8262633;28;20058;-65
2022/03/29 06:43:29;;;;;;;57.70;23.13;;;;;;;10.07;100.00;100279.50;8276510;28;20034;-65
2022/03/29 06:47:29;;;;;;;60.92;24.23;;;;;;;10.39;97.37;100276.44;8267116;28;20050;-65
2022/03/29 06:51:30;;;;;;;66.68;22.35;;;;;;;10.30;96.18;100278.19;8273162;28;20031;-65
2022/03/29 06:55:31;;;;;;;60.85;23.45;;;;;;;10.55;95.53;100274.84;8279295;28;20447;-65
2022/03/29 06:59:31;;;;;;;57.30;22.88;;;;;;;10.55;95.11;100272.13;8280535;28;20034;-65
2022/03/29 07:03:34;;;;;;;56.85;22.65;;;;;;;10.82;95.37;100274.91;8254210;28;20038;-65
2022/03/29 07:07:35;;;;;;;58.47;23.63;;;;;;;10.94;95.18;100270.16;8281877;28;20089;-65
2022/03/29 07:11:35;;;;;;;51.15;23.02;;;;;;;10.95;96.58;100266.47;8260166;28;20062;-65
2022/03/29 07:15:36;;;;;;;60.40;24.70;;;;;;;11.05;93.82;100268.13;8271239;28;20113;-65
2022/03/29 07:19:36;;;;;;;54.38;21.40;;;;;;;11.07;92.00;100266.09;8255277;28;20274;-65
2022/03/29 07:23:37;;;;;;;56.53;22.17;;;;;;;11.02;92.04;100267.56;8272030;28;20053;-65
2022/03/29 07:27:38;;;;;;;312.83;50.42;;;;;;;11.10;93.63;100268.50;8284594;28;20281;-65
2022/03/29 07:31:39;;;;;;;123.65;30.08;;;;;;;11.04;96.34;100262.88;8280092;28;20038;-65
2022/03/29 07:35:40;;;;;;;100.50;29.73;;;;;;;11.16;92.88;100270.63;8283041;28;20039;-65
2022/03/29 07:39:41;;;;;;;820.92;120.47;;;;;;;11.21;91.79;100267.47;8271732;28;20038;-65
2022/03/29 07:43:42;;;;;;;52.05;23.98;;;;;;;11.20;90.23;100285.53;8271480;28;20049;-65
2022/03/29 07:47:43;;;;;;;101.55;27.80;;;;;;;11.34;89.13;100279.63;8254645;28;20042;-65
2022/03/29 07:51:43;;;;;;;72.25;25.73;;;;;;;11.29;89.38;100270.28;8259624;28;20037;-65
2022/03/29 07:55:45;;;;;;;208.52;39.38;;;;;;;11.53;90.29;100276.81;8247458;28;20034;-65
2022/03/29 07:59:45;;;;;;;49.22;23.65;;;;;;;11.46;88.46;100275.72;8270897;28;20049;-65
2022/03/29 08:03:45;;;;;;;810.73;133.50;;;;;;;11.53;88.79;100257.84;8269621;28;20065;-65
2022/03/29 08:07:46;;;;;;;734.53;99.72;;;;;;;11.58;90.03;100254.69;8271826;28;20288;-65
2022/03/29 08:11:46;;;;;;;169.45;36.33;;;;;;;11.73;89.04;100270.28;8270123;28;20040;-65
2022/03/29 08:15:49;;;;;;;51.60;24.53;;;;;;;11.90;87.11;100265.88;8283508;28;20050;-65
2022/03/29 08:19:49;;;;;;;59.08;24.90;;;;;;;12.13;85.32;100255.44;8274496;28;20302;-65
2022/03/29 08:23:50;;;;;;;858.53;130.23;;;;;;;12.28;85.63;100232.13;8269826;28;20470;-65
2022/03/29 08:27:50;;;;;;;63.75;26.15;;;;;;;12.30;85.04;100232.84;8280411;28;20120;-65
2022/03/29 08:31:52;;;;;;;62.08;26.88;;;;;;;12.34;84.86;100247.78;8269649;28;20085;-65
2022/03/29 08:35:52;;;;;;;69.00;27.77;;;;;;;12.64;83.47;100241.88;8270015;28;20517;-65
2022/03/29 08:39:53;;;;;;;60.13;26.35;;;;;;;12.63;83.02;100237.47;8282451;28;20395;-65
2022/03/29 08:43:53;;;;;;;53.05;24.42;;;;;;;12.92;83.95;100230.69;8273766;28;20447;-65
2022/03/29 08:47:56;;;;;;;61.58;27.88;;;;;;;12.85;82.40;100231.50;8264222;28;20061;-65
2022/03/29 08:51:57;;;;;;;59.50;27.27;;;;;;;13.11;82.41;100232.31;8273677;28;20065;-65
2022/03/29 08:55:57;;;;;;;59.03;26.73;;;;;;;13.15;81.73;100228.28;8273170;28;20050;-65
2022/03/29 08:59:59;;;;;;;72.18;27.48;;;;;;;13.41;81.82;100216.31;8265747;28;20483;-65
2022/03/29 09:04:20;;;;;;;59.38;26.90;;;;;;;13.46;80.75;100211.22;8260574;28;20415;-65
2022/03/29 09:08:20;;;;;;;56.85;27.05;;;;;;;13.76;79.25;100223.34;8240078;28;20050;-65
2022/03/29 09:12:22;;;;;;;53.40;24.63;;;;;;;13.79;79.50;100212.97;8271663;28;20050;-65
2022/03/29 09:16:29;;;;;;;52.25;25.77;;;;;;;13.87;78.07;100203.97;8297816;28;20563;-65
2022/03/29 09:20:30;;;;;;;61.97;27.15;;;;;;;14.33;77.81;100203.28;8274570;28;20038;-65
2022/03/29 09:24:35;;;;;;;56.63;25.15;;;;;;;14.49;76.02;100192.38;8263645;28;20042;-65
2022/03/29 09:28:37;;;;;;;45.42;22.95;;;;;;;14.79;75.18;100191.63;8266199;28;20491;-65
2022/03/29 09:32:56;;;;;;;50.13;23.92;;;;;;;14.94;72.49;100189.84;8254851;28;20042;-65
2022/03/29 09:36:57;;;;;;;48.50;23.77;;;;;;;15.73;69.22;100193.19;8244297;28;20046;-65
2022/03/29 09:40:59;;;;;;;47.08;22.63;;;;;;;16.26;68.70;100180.47;8274030;28;20100;-65
2022/03/29 09:44:59;;;;;;;47.10;24.40;;;;;;;15.81;68.70;100172.34;8260823;28;20052;-65
2022/03/29 09:49:03;;;;;;;49.20;23.85;;;;;;;15.42;70.08;100164.28;8258390;28;20045;-66
2022/03/29 09:53:03;;;;;;;83.27;28.67;;;;;;;15.55;71.41;100165.38;8243900;28;20037;-65
2022/03/29 09:57:04;;;;;;;72.82;26.73;;;;;;;16.20;67.97;100162.13;8268738;28;20097;-65
2022/03/29 10:01:06;;;;;;;56.40;26.00;;;;;;;15.89;67.38;100154.03;8263827;28;20046;-65
2022/03/29 10:05:09;;;;;;;65.05;31.10;;;;;;;15.81;68.76;100156.00;8280478;28;20043;-65
2022/03/29 10:09:27;;;;;;;66.20;30.13;;;;;;;16.03;65.81;100150.50;8296788;28;20117;-65
2022/03/29 10:13:28;;;;;;;46.60;22.33;;;;;;;16.34;63.83;100147.63;8270956;28;20042;-65
2022/03/29 10:17:29;;;;;;;47.20;22.35;;;;;;;16.77;61.70;100144.13;8284456;28;20093;-65
2022/03/29 10:21:30;;;;;;;48.08;23.15;;;;;;;16.79;62.24;100142.03;8260092;28;20038;-65
2022/03/29 10:25:32;;;;;;;46.53;21.52;;;;;;;16.67;62.78;100128.03;8270423;28;20117;-65
2022/03/29 10:29:33;;;;;;;47.25;21.45;;;;;;;16.81;61.70;100129.88;8251352;28;20046;-65
2022/03/29 10:33:33;;;;;;;44.65;20.17;;;;;;;17.18;61.74;100116.09;8274037;28;20072;-65
2022/03/29 10:37:53;;;;;;;39.70;21.23;;;;;;;17.90;58.16;100116.00;8273722;28;20042;-65
2022/03/29 10:41:53;;;;;;;51.10;22.00;;;;;;;17.62;58.99;100112.38;8289780;28;20042;-65
2022/03/29 10:45:54;;;;;;;40.17;21.23;;;;;;;18.26;57.85;100101.13;8290113;28;20410;-65
2022/03/29 10:49:55;;;;;;;40.17;20.10;;;;;;;18.29;57.01;100098.00;8288661;28;20049;-66
2022/03/29 10:54:23;;;;;;;40.80;20.83;;;;;;;19.32;56.16;100088.66;8262097;28;20046;-66
2022/03/29 10:58:23;;;;;;;39.13;19.80;;;;;;;18.89;55.73;100087.22;8261240;28;20038;-65
2022/03/29 11:02:24;;;;;;;35.30;20.25;;;;;;;18.01;56.80;100079.88;8282930;28;20046;-65
2022/03/29 11:06:25;;;;;;;44.20;19.02;;;;;;;18.02;55.50;100068.75;8292255;28;20041;-63
2022/03/29 11:10:43;;;;;;;35.33;18.88;;;;;;;18.19;54.36;100067.41;8280860;28;20038;-63
2022/03/29 11:14:45;;;;;;;37.42;19.77;;;;;;;18.17;55.03;100064.00;8290644;28;20046;-64
2022/03/29 11:18:45;;;;;;;34.70;17.95;;;;;;;18.17;55.69;100058.53;8273345;28;20410;-64
2022/03/29 11:22:46;;;;;;;30.20;16.88;;;;;;;18.60;53.86;100046.41;8270521;28;20057;-64
2022/03/29 11:26:54;;;;;;;37.13;17.17;;;;;;;18.78;53.74;100048.56;8243539;28;20038;-64
2022/03/29 11:30:54;;;;;;;28.30;16.25;;;;;;;19.36;52.32;100046.06;8259480;28;20109;-64
2022/03/29 11:34:58;;;;;;;32.72;16.30;;;;;;;18.49;53.22;100040.66;8259650;28;20035;-64
2022/03/29 11:38:58;;;;;;;33.10;16.92;;;;;;;18.76;53.42;100029.59;8276437;28;20391;-64
2022/03/29 11:43:00;;;;;;;31.50;16.48;;;;;;;18.12;54.06;100033.69;8255504;28;20042;-64
2022/03/29 11:47:01;;;;;;;27.35;14.75;;;;;;;18.72;53.50;100020.13;8259801;28;20134;-64
2022/03/29 11:51:02;;;;;;;33.60;16.45;;;;;;;19.00;53.86;100009.88;8265646;28;20042;-64
2022/03/29 11:55:15;;;;;;;26.52;15.18;;;;;;;18.56;53.83;100009.53;8241731;28;20080;-64
2022/03/29 11:59:16;;;;;;;30.75;15.57;;;;;;;18.42;52.51;100002.28;8248560;28;20058;-64
2022/03/29 12:03:34;;;;;;;25.70;14.90;;;;;;;19.15;51.40;99993.25;8256315;28;20048;-64
2022/03/29 12:07:42;;;;;;;24.60;13.65;;;;;;;20.40;50.89;99986.69;8251956;28;20034;-64
2022/03/29 12:11:42;;;;;;;23.38;13.68;;;;;;;19.35;50.92;99989.53;8265124;28;20081;-64
2022/03/29 12:15:43;;;;;;;20.95;12.40;;;;;;;18.95;51.26;99976.81;8246191;28;20039;-64
2022/03/29 12:19:47;;;;;;;20.83;12.70;;;;;;;19.76;49.94;99969.28;8269193;28;20037;-64
2022/03/29 12:23:49;;;;;;;19.60;12.38;;;;;;;19.61;49.88;99965.91;8239845;28;20283;-64
2022/03/29 12:27:50;;;;;;;22.73;12.85;;;;;;;19.85;50.19;99968.81;8262310;28;20038;-64
2022/03/29 12:31:51;;;;;;;18.55;11.23;;;;;;;19.82;48.84;99955.53;8256325;28;20518;-64
2022/03/29 12:36:13;;;;;;;21.52;10.38;;;;;;;20.02;49.96;99960.97;8245955;28;20045;-64
2022/03/29 12:40:15;;;;;;;20.90;11.38;;;;;;;18.80;50.71;99951.47;8256778;28;20049;-64
2022/03/29 12:48:48;;;;;;;25.52;11.45;;;;;;;18.75;52.50;99942.16;8284392;28;20851;-63
2022/03/29 12:52:49;;;;;;;19.45;12.70;;;;;;;19.05;53.56;99932.53;8254910;28;20042;-64
2022/03/29 12:56:50;;;;;;;54.70;26.90;;;;;;;18.07;57.95;99921.28;8298124;28;20091;-64
2022/03/29 13:00:50;;;;;;;55.97;30.60;;;;;;;17.69;60.99;99927.38;8281653;28;20406;-64
2022/03/29 13:05:03;;;;;;;68.57;36.25;;;;;;;16.98;64.08;99922.97;8285448;28;20359;-64
2022/03/29 13:09:03;;;;;;;74.40;37.80;;;;;;;16.53;65.36;99912.44;8281665;28;20486;-63
2022/03/29 13:13:10;;;;;;;75.03;38.85;;;;;;;16.68;66.37;99910.50;8284447;28;20481;-63
2022/03/29 13:17:11;;;;;;;72.28;36.80;;;;;;;16.65;66.30;99910.91;8291825;28;20050;-63
2022/03/29 13:21:32;;;;;;;72.65;36.90;;;;;;;16.60;66.76;99899.72;8282338;28;20585;-63
2022/03/29 13:25:35;;;;;;;75.65;41.60;;;;;;;16.54;66.15;99897.75;8285825;28;20494;-65
2022/03/29 13:29:36;;;;;;;78.20;39.13;;;;;;;16.42;67.04;99893.81;8297181;28;20042;-64
2022/03/29 13:33:36;;;;;;;73.68;37.83;;;;;;;16.06;66.87;99899.25;8263919;28;20491;-63
2022/03/29 13:37:37;;;;;;;79.22;40.72;;;;;;;15.88;67.70;99903.41;8283110;28;20030;-63
2022/03/29 13:41:37;;;;;;;78.35;38.58;;;;;;;15.77;68.56;99905.59;8283940;28;20035;-64
2022/03/29 13:45:38;;;;;;;73.72;36.72;;;;;;;15.52;68.54;99896.00;8280326;28;20045;-63
2022/03/29 13:49:38;;;;;;;80.53;38.97;;;;;;;15.50;69.45;99895.34;8282325;28;20093;-63
2022/03/29 13:53:40;;;;;;;84.60;38.70;;;;;;;15.67;68.49;99882.38;8265704;28;20495;-63
2022/03/29 13:57:40;;;;;;;79.30;39.20;;;;;;;15.90;67.90;99882.25;8263252;28;20578;-63
2022/03/29 14:01:43;;;;;;;79.35;38.67;;;;;;;15.77;68.32;99880.22;8251388;28;20435;-64
2022/03/29 14:05:45;;;;;;;75.40;37.47;;;;;;;15.90;67.55;99877.66;8236783;28;20153;-63
2022/03/29 14:09:45;;;;;;;80.75;37.72;;;;;;;15.73;67.75;99866.13;8217313;28;20102;-65
2022/03/29 14:13:46;;;;;;;79.60;37.50;;;;;;;15.47;68.77;99863.00;8216492;28;20129;-65
2022/03/29 14:17:47;;;;;;;73.22;39.10;;;;;;;15.51;69.67;99860.78;8227661;28;20522;-65
2022/03/29 14:21:47;;;;;;;73.25;37.95;;;;;;;15.68;68.63;99865.00;8221606;28;20101;-65
2022/03/29 14:25:49;;;;;;;72.72;35.88;;;;;;;15.60;67.70;99859.66;8235568;28;20138;-65
2022/03/29 14:29:50;;;;;;;78.07;38.10;;;;;;;15.43;68.15;99869.88;8194520;28;20550;-65
2022/03/29 14:33:51;;;;;;;72.25;35.03;;;;;;;15.53;67.69;99854.09;8216545;28;20478;-65
2022/03/29 14:37:51;;;;;;;73.35;36.10;;;;;;;15.41;68.84;99855.59;8216723;28;20133;-63
2022/03/29 14:41:52;;;;;;;81.07;37.90;;;;;;;15.37;68.71;99854.28;8222273;28;20117;-63
2022/03/29 14:45:52;;;;;;;81.60;39.55;;;;;;;15.25;68.94;99847.56;8213998;28;20210;-63
2022/03/29 14:49:53;;;;;;;99.35;41.92;;;;;;;15.12;69.58;99839.22;8218826;28;20602;-63
2022/03/29 14:53:56;;;;;;;92.10;40.22;;;;;;;15.10;69.67;99835.81;8217581;28;20299;-63
2022/03/29 14:57:56;;;;;;;93.03;41.22;;;;;;;15.33;69.58;99839.31;8211620;28;20437;-63
2022/03/29 15:01:56;;;;;;;88.10;40.78;;;;;;;15.27;69.34;99842.81;8206570;28;20351;-63
2022/03/29 15:05:57;;;;;;;85.70;38.87;;;;;;;15.19;69.34;99823.81;8211940;28;20637;-63
2022/03/29 15:09:58;;;;;;;84.43;38.63;;;;;;;15.12;68.88;99816.56;8214580;28;20279;-63
2022/03/29 15:13:59;;;;;;;87.40;38.47;;;;;;;15.01;69.07;99806.16;8215017;28;20073;-63
2022/03/29 15:18:00;;;;;;;84.78;37.20;;;;;;;15.14;68.11;99815.38;8220678;28;20423;-63
2022/03/29 15:22:01;;;;;;;75.40;33.90;;;;;;;14.94;67.07;99803.34;8245170;28;20443;-63
2022/03/29 15:26:01;;;;;;;70.47;31.70;;;;;;;14.90;65.97;99802.03;8234420;28;20050;-63
2022/03/29 15:30:04;;;;;;;81.25;33.72;;;;;;;14.99;66.63;99790.03;8218224;28;20109;-63
2022/03/29 15:34:06;;;;;;;70.85;30.48;;;;;;;15.07;66.00;99787.19;8208009;28;20488;-64
2022/03/29 15:38:06;;;;;;;59.75;29.73;;;;;;;14.99;65.47;99784.56;8237942;28;20470;-63
2022/03/29 15:42:09;;;;;;;69.97;30.98;;;;;;;15.03;65.76;99785.03;8240785;28;20064;-63
2022/03/29 15:46:10;;;;;;;71.93;33.00;;;;;;;15.04;65.98;99775.84;8245534;28;20521;-63
2022/03/29 15:50:11;;;;;;;73.03;31.48;;;;;;;15.04;66.57;99779.38;8249929;28;20419;-63
2022/03/29 15:54:11;;;;;;;68.28;32.03;;;;;;;14.95;67.04;99776.97;8244593;28;20621;-63
2022/03/29 15:58:15;;;;;;;67.45;31.38;;;;;;;14.80;66.97;99768.78;8241316;28;20418;-63
2022/03/29 16:02:16;;;;;;;74.40;30.23;;;;;;;14.71;67.34;99769.91;8244483;28;20042;-63
2022/03/29 16:06:20;;;;;;;59.15;30.35;;;;;;;14.66;67.22;99766.88;8245559;28;20042;-63
2022/03/29 16:10:21;;;;;;;56.38;29.33;;;;;;;14.49;66.55;99759.88;8245583;28;20042;-63
2022/03/29 16:14:21;;;;;;;58.47;28.38;;;;;;;14.51;66.31;99757.84;8219735;28;20078;-63
2022/03/29 16:18:22;;;;;;;60.28;28.05;;;;;;;14.47;65.90;99753.81;8208664;28;20121;-63
2022/03/29 16:22:22;;;;;;;51.55;26.33;;;;;;;14.67;65.56;99749.50;8209998;28;20415;-63
2022/03/29 16:26:31;;;;;;;44.90;23.77;;;;;;;14.61;64.35;99747.53;8207607;28;20434;-63
2022/03/29 16:30:32;;;;;;;43.70;21.60;;;;;;;14.60;63.50;99740.41;8205435;28;20313;-63
2022/03/29 16:34:32;;;;;;;45.40;20.60;;;;;;;14.70;62.77;99738.25;8200089;28;20039;-63
2022/03/29 16:38:33;;;;;;;45.33;20.85;;;;;;;14.56;62.04;99743.69;8207143;28;20031;-63
2022/03/29 16:42:34;;;;;;;44.25;19.92;;;;;;;14.46;62.02;99738.53;8219164;28;20057;-63
2022/03/29 16:46:35;;;;;;;32.38;17.98;;;;;;;14.46;61.94;99735.81;8212630;28;20043;-63
2022/03/29 16:50:36;;;;;;;38.88;18.40;;;;;;;14.44;62.00;99732.41;8217698;28;20046;-63
2022/03/29 16:54:37;;;;;;;39.42;18.98;;;;;;;14.41;62.02;99729.22;8233952;28;20093;-63
2022/03/29 16:58:37;;;;;;;38.88;18.08;;;;;;;14.38;61.83;99732.28;8241401;28;20886;-63
2022/03/29 17:02:37;;;;;;;37.58;18.63;;;;;;;14.33;62.26;99738.28;8243105;28;20046;-63
2022/03/29 17:06:38;;;;;;;43.05;20.30;;;;;;;14.30;62.47;99738.66;8236714;28;20091;-63
2022/03/29 17:10:38;;;;;;;42.90;20.38;;;;;;;14.13;62.86;99723.50;8233750;28;20093;-63
2022/03/29 17:14:39;;;;;;;45.65;21.65;;;;;;;14.08;63.89;99728.63;8220703;28;20030;-63
2022/03/29 17:18:40;;;;;;;46.85;23.08;;;;;;;14.04;63.90;99735.44;8240509;28;20057;-63
2022/03/29 17:22:41;;;;;;;53.15;24.92;;;;;;;13.93;64.33;99730.44;8237616;28;20044;-63
2022/03/29 17:26:42;;;;;;;52.80;24.05;;;;;;;13.82;64.96;99730.88;8240028;28;20050;-63
2022/03/29 17:30:43;;;;;;;50.65;24.67;;;;;;;13.75;65.12;99735.31;8236655;28;20092;-63
2022/03/29 17:34:46;;;;;;;57.63;23.65;;;;;;;13.68;65.76;99731.63;8240387;28;20434;-63
2022/03/29 17:38:46;;;;;;;40.85;21.45;;;;;;;13.65;64.77;99732.84;8243825;28;20546;-63
2022/03/29 17:42:47;;;;;;;38.15;19.80;;;;;;;13.54;64.10;99725.09;8243102;28;20042;-63
2022/03/29 17:46:49;;;;;;;40.45;20.73;;;;;;;13.48;64.47;99731.22;8248082;28;20046;-63
2022/03/29 17:50:50;;;;;;;38.92;17.98;;;;;;;13.35;64.35;99719.25;8249289;28;20473;-63
2022/03/29 17:54:50;;;;;;;34.60;18.70;;;;;;;13.28;64.26;99718.28;8249714;28;20434;-63
2022/03/29 17:58:51;;;;;;;35.97;18.80;;;;;;;13.21;64.51;99711.88;8237315;28;20129;-63
2022/03/29 18:02:51;;;;;;;33.63;17.00;;;;;;;13.13;64.81;99720.03;8245928;28;20046;-63
2022/03/29 18:06:52;;;;;;;31.70;17.35;;;;;;;13.04;64.38;99716.53;8250676;28;20046;-63
2022/03/29 18:10:52;;;;;;;29.77;16.02;;;;;;;12.96;64.95;99721.13;8238210;28;20052;-63
2022/03/29 18:14:52;;;;;;;32.22;15.95;;;;;;;12.93;64.79;99716.03;8236795;28;20050;-63
2022/03/29 18:18:53;;;;;;;31.80;17.08;;;;;;;12.88;64.68;99710.28;8233973;28;20053;-63
2022/03/29 18:22:57;;;;;;;36.13;15.55;;;;;;;12.77;65.06;99708.78;8244494;28;21306;-63
2022/03/29 18:26:57;;;;;;;29.42;16.83;;;;;;;12.75;65.14;99715.41;8246010;28;20046;-63
2022/03/29 18:30:58;;;;;;;36.72;16.77;;;;;;;12.75;65.24;99710.00;8243661;28;20558;-63